sensor_id;sensor_type;location;lat;lon;timestamp;P1;durP1;ratioP1;P2;durP2;ratioP2
68310;SDS011;55157;51.036;17.058;2022-07-04T00:01:44;7.43;;;5.78;;
68310;SDS011;55157;51.036;17.058;2022-07-04T00:04:10;8.98;;;6.38;;
68310;SDS011;55157;51.036;17.058;2022-07-04T00:06:35;7.97;;;6.20;;
68310;SDS011;55157;51.036;17.058;2022-07-04T00:09:00;11.35;;;5.70;;
68310;SDS011;55157;51.036;17.058;2022-07-04T00:11:25;6.07;;;5.47;;
68310;SDS011;55157;51.036;17.058;2022-07-04T00:13:51;6.60;;;5.78;;
68310;SDS011;55157;51.036;17.058;2022-07-04T00:16:18;6.63;;;5.95;;
68310;SDS011;55157;51.036;17.058;2022-07-04T00:18:43;8.70;;;6.13;;
68310;SDS011;55157;51.036;17.058;2022-07-04T00:21:08;9.05;;;6.55;;
68310;SDS011;55157;51.036;17.058;2022-07-04T00:23:33;8.32;;;7.25;;
68310;SDS011;55157;51.036;17.058;2022-07-04T00:25:59;9.13;;;7.18;;
68310;SDS011;55157;51.036;17.058;2022-07-04T00:28:24;13.45;;;7.55;;
68310;SDS011;55157;51.036;17.058;2022-07-04T00:30:49;10.13;;;6.90;;
68310;SDS011;55157;51.036;17.058;2022-07-04T00:33:16;9.45;;;8.45;;
68310;SDS011;55157;51.036;17.058;2022-07-04T00:35:41;9.55;;;8.18;;
68310;SDS011;55157;51.036;17.058;2022-07-04T00:38:06;12.02;;;8.43;;
68310;SDS011;55157;51.036;17.058;2022-07-04T00:40:32;13.13;;;8.32;;
68310;SDS011;55157;51.036;17.058;2022-07-04T00:42:59;10.15;;;7.60;;
68310;SDS011;55157;51.036;17.058;2022-07-04T00:45:24;8.82;;;6.88;;
68310;SDS011;55157;51.036;17.058;2022-07-04T00:47:50;18.92;;;6.97;;
68310;SDS011;55157;51.036;17.058;2022-07-04T00:50:16;10.50;;;6.63;;
68310;SDS011;55157;51.036;17.058;2022-07-04T00:52:42;7.90;;;7.10;;
68310;SDS011;55157;51.036;17.058;2022-07-04T00:55:07;8.68;;;6.00;;
68310;SDS011;55157;51.036;17.058;2022-07-04T00:57:33;10.07;;;7.05;;
68310;SDS011;55157;51.036;17.058;2022-07-04T00:59:58;8.38;;;6.93;;
68310;SDS011;55157;51.036;17.058;2022-07-04T01:02:24;11.15;;;7.40;;
68310;SDS011;55157;51.036;17.058;2022-07-04T01:04:49;11.20;;;7.70;;
68310;SDS011;55157;51.036;17.058;2022-07-04T01:07:16;8.38;;;7.20;;
68310;SDS011;55157;51.036;17.058;2022-07-04T01:09:41;7.88;;;6.15;;
68310;SDS011;55157;51.036;17.058;2022-07-04T01:12:07;10.88;;;6.70;;
68310;SDS011;55157;51.036;17.058;2022-07-04T01:14:32;8.52;;;6.78;;
68310;SDS011;55157;51.036;17.058;2022-07-04T01:17:01;8.80;;;7.90;;
68310;SDS011;55157;51.036;17.058;2022-07-04T01:19:26;9.60;;;7.15;;
68310;SDS011;55157;51.036;17.058;2022-07-04T01:21:53;13.45;;;6.93;;
68310;SDS011;55157;51.036;17.058;2022-07-04T01:24:18;36.47;;;7.60;;
68310;SDS011;55157;51.036;17.058;2022-07-04T01:26:43;211.80;;;14.65;;
68310;SDS011;55157;51.036;17.058;2022-07-04T01:29:08;28.50;;;7.03;;
68310;SDS011;55157;51.036;17.058;2022-07-04T01:31:34;9.30;;;6.18;;
68310;SDS011;55157;51.036;17.058;2022-07-04T01:33:59;9.77;;;5.72;;
68310;SDS011;55157;51.036;17.058;2022-07-04T01:36:24;13.00;;;6.20;;
68310;SDS011;55157;51.036;17.058;2022-07-04T01:38:51;10.80;;;5.93;;
68310;SDS011;55157;51.036;17.058;2022-07-04T01:41:17;7.55;;;6.45;;
68310;SDS011;55157;51.036;17.058;2022-07-04T01:43:42;7.28;;;6.10;;
68310;SDS011;55157;51.036;17.058;2022-07-04T01:46:07;8.40;;;6.85;;
68310;SDS011;55157;51.036;17.058;2022-07-04T01:48:33;11.32;;;8.20;;
68310;SDS011;55157;51.036;17.058;2022-07-04T01:50:58;9.48;;;7.55;;
68310;SDS011;55157;51.036;17.058;2022-07-04T01:53:23;9.23;;;6.93;;
68310;SDS011;55157;51.036;17.058;2022-07-04T01:55:50;8.57;;;7.78;;
68310;SDS011;55157;51.036;17.058;2022-07-04T01:58:15;9.10;;;7.53;;
68310;SDS011;55157;51.036;17.058;2022-07-04T02:00:40;11.63;;;7.13;;
68310;SDS011;55157;51.036;17.058;2022-07-04T02:03:05;10.65;;;6.70;;
68310;SDS011;55157;51.036;17.058;2022-07-04T02:05:31;9.18;;;6.78;;
68310;SDS011;55157;51.036;17.058;2022-07-04T02:07:56;14.45;;;6.80;;
68310;SDS011;55157;51.036;17.058;2022-07-04T02:10:21;8.57;;;6.63;;
68310;SDS011;55157;51.036;17.058;2022-07-04T02:12:48;12.52;;;7.53;;
68310;SDS011;55157;51.036;17.058;2022-07-04T02:15:13;9.20;;;7.22;;
68310;SDS011;55157;51.036;17.058;2022-07-04T02:17:39;12.52;;;7.18;;
68310;SDS011;55157;51.036;17.058;2022-07-04T02:20:04;13.25;;;6.50;;
68310;SDS011;55157;51.036;17.058;2022-07-04T02:22:30;8.77;;;6.75;;
68310;SDS011;55157;51.036;17.058;2022-07-04T02:24:55;8.48;;;7.15;;
68310;SDS011;55157;51.036;17.058;2022-07-04T02:27:20;7.90;;;6.97;;
68310;SDS011;55157;51.036;17.058;2022-07-04T02:29:47;8.93;;;6.63;;
68310;SDS011;55157;51.036;17.058;2022-07-04T02:32:12;10.88;;;6.57;;
68310;SDS011;55157;51.036;17.058;2022-07-04T02:34:37;12.38;;;6.78;;
68310;SDS011;55157;51.036;17.058;2022-07-04T02:37:03;16.05;;;7.15;;
68310;SDS011;55157;51.036;17.058;2022-07-04T02:39:28;13.25;;;8.32;;
68310;SDS011;55157;51.036;17.058;2022-07-04T02:41:53;10.07;;;7.80;;
68310;SDS011;55157;51.036;17.058;2022-07-04T02:44:19;9.30;;;6.38;;
68310;SDS011;55157;51.036;17.058;2022-07-04T02:46:45;18.48;;;8.18;;
68310;SDS011;55157;51.036;17.058;2022-07-04T02:49:11;11.27;;;7.45;;
68310;SDS011;55157;51.036;17.058;2022-07-04T02:51:36;15.30;;;6.90;;
68310;SDS011;55157;51.036;17.058;2022-07-04T02:54:01;12.60;;;7.32;;
68310;SDS011;55157;51.036;17.058;2022-07-04T02:56:26;18.42;;;7.88;;
68310;SDS011;55157;51.036;17.058;2022-07-04T02:58:52;14.77;;;7.28;;
68310;SDS011;55157;51.036;17.058;2022-07-04T03:01:17;8.90;;;6.85;;
68310;SDS011;55157;51.036;17.058;2022-07-04T03:03:44;14.18;;;7.15;;
68310;SDS011;55157;51.036;17.058;2022-07-04T03:06:09;12.23;;;8.10;;
68310;SDS011;55157;51.036;17.058;2022-07-04T03:08:34;10.00;;;7.53;;
68310;SDS011;55157;51.036;17.058;2022-07-04T03:11:00;11.63;;;7.80;;
68310;SDS011;55157;51.036;17.058;2022-07-04T03:13:25;10.27;;;7.80;;
68310;SDS011;55157;51.036;17.058;2022-07-04T03:15:50;17.45;;;7.53;;
68310;SDS011;55157;51.036;17.058;2022-07-04T03:18:16;15.52;;;7.53;;
68310;SDS011;55157;51.036;17.058;2022-07-04T03:20:42;16.38;;;7.15;;
68310;SDS011;55157;51.036;17.058;2022-07-04T03:23:08;10.05;;;7.50;;
68310;SDS011;55157;51.036;17.058;2022-07-04T03:25:33;10.23;;;7.70;;
68310;SDS011;55157;51.036;17.058;2022-07-04T03:27:58;16.17;;;8.13;;
68310;SDS011;55157;51.036;17.058;2022-07-04T03:30:23;15.85;;;7.80;;
68310;SDS011;55157;51.036;17.058;2022-07-04T03:32:49;14.63;;;9.57;;
68310;SDS011;55157;51.036;17.058;2022-07-04T03:35:14;18.50;;;8.35;;
68310;SDS011;55157;51.036;17.058;2022-07-04T03:37:41;15.23;;;8.82;;
68310;SDS011;55157;51.036;17.058;2022-07-04T03:40:07;14.40;;;8.50;;
68310;SDS011;55157;51.036;17.058;2022-07-04T03:42:32;21.67;;;8.25;;
68310;SDS011;55157;51.036;17.058;2022-07-04T03:44:58;16.40;;;7.88;;
68310;SDS011;55157;51.036;17.058;2022-07-04T03:47:23;16.38;;;9.10;;
68310;SDS011;55157;51.036;17.058;2022-07-04T03:49:49;15.30;;;8.43;;
68310;SDS011;55157;51.036;17.058;2022-07-04T03:52:15;12.85;;;8.10;;
68310;SDS011;55157;51.036;17.058;2022-07-04T03:54:41;11.25;;;7.93;;
68310;SDS011;55157;51.036;17.058;2022-07-04T03:57:07;13.60;;;8.10;;
68310;SDS011;55157;51.036;17.058;2022-07-04T03:59:32;15.30;;;8.77;;
68310;SDS011;55157;51.036;17.058;2022-07-04T04:01:57;16.33;;;7.90;;
68310;SDS011;55157;51.036;17.058;2022-07-04T04:04:22;24.38;;;8.20;;
68310;SDS011;55157;51.036;17.058;2022-07-04T04:06:48;11.60;;;7.80;;
68310;SDS011;55157;51.036;17.058;2022-07-04T04:09:13;18.38;;;7.57;;
68310;SDS011;55157;51.036;17.058;2022-07-04T04:11:40;14.20;;;7.65;;
68310;SDS011;55157;51.036;17.058;2022-07-04T04:14:05;14.25;;;7.80;;
68310;SDS011;55157;51.036;17.058;2022-07-04T04:16:30;12.18;;;7.22;;
68310;SDS011;55157;51.036;17.058;2022-07-04T04:18:55;15.77;;;7.38;;
68310;SDS011;55157;51.036;17.058;2022-07-04T04:21:21;12.98;;;7.47;;
68310;SDS011;55157;51.036;17.058;2022-07-04T04:23:46;13.13;;;8.07;;
68310;SDS011;55157;51.036;17.058;2022-07-04T04:26:11;10.60;;;6.65;;
68310;SDS011;55157;51.036;17.058;2022-07-04T04:28:38;8.93;;;6.50;;
68310;SDS011;55157;51.036;17.058;2022-07-04T04:31:03;15.98;;;7.78;;
68310;SDS011;55157;51.036;17.058;2022-07-04T04:33:28;17.80;;;7.32;;
68310;SDS011;55157;51.036;17.058;2022-07-04T04:35:54;15.27;;;7.82;;
68310;SDS011;55157;51.036;17.058;2022-07-04T04:38:19;14.93;;;6.60;;
68310;SDS011;55157;51.036;17.058;2022-07-04T04:40:44;16.55;;;5.93;;
68310;SDS011;55157;51.036;17.058;2022-07-04T04:43:09;10.65;;;6.43;;
68310;SDS011;55157;51.036;17.058;2022-07-04T04:45:36;17.05;;;6.20;;
68310;SDS011;55157;51.036;17.058;2022-07-04T04:48:01;12.15;;;7.03;;
68310;SDS011;55157;51.036;17.058;2022-07-04T04:50:27;20.45;;;6.90;;
68310;SDS011;55157;51.036;17.058;2022-07-04T04:52:52;12.73;;;5.82;;
68310;SDS011;55157;51.036;17.058;2022-07-04T04:55:17;18.67;;;5.60;;
68310;SDS011;55157;51.036;17.058;2022-07-04T04:57:42;18.83;;;6.03;;
68310;SDS011;55157;51.036;17.058;2022-07-04T05:00:08;12.20;;;5.72;;
68310;SDS011;55157;51.036;17.058;2022-07-04T05:02:35;10.90;;;5.80;;
68310;SDS011;55157;51.036;17.058;2022-07-04T05:05:00;12.07;;;5.90;;
68310;SDS011;55157;51.036;17.058;2022-07-04T05:07:25;14.20;;;4.93;;
68310;SDS011;55157;51.036;17.058;2022-07-04T05:09:50;17.35;;;5.68;;
68310;SDS011;55157;51.036;17.058;2022-07-04T05:12:16;13.73;;;5.45;;
68310;SDS011;55157;51.036;17.058;2022-07-04T05:14:41;17.75;;;5.22;;
68310;SDS011;55157;51.036;17.058;2022-07-04T05:17:06;10.10;;;4.97;;
68310;SDS011;55157;51.036;17.058;2022-07-04T05:19:33;13.82;;;4.90;;
68310;SDS011;55157;51.036;17.058;2022-07-04T05:21:58;8.10;;;5.15;;
68310;SDS011;55157;51.036;17.058;2022-07-04T05:24:24;9.15;;;4.28;;
68310;SDS011;55157;51.036;17.058;2022-07-04T05:26:49;11.20;;;5.55;;
68310;SDS011;55157;51.036;17.058;2022-07-04T05:29:14;9.75;;;4.15;;
68310;SDS011;55157;51.036;17.058;2022-07-04T05:31:40;9.43;;;4.10;;
68310;SDS011;55157;51.036;17.058;2022-07-04T05:34:05;12.65;;;4.20;;
68310;SDS011;55157;51.036;17.058;2022-07-04T05:36:32;11.35;;;3.90;;
68310;SDS011;55157;51.036;17.058;2022-07-04T05:38:57;5.75;;;3.53;;
68310;SDS011;55157;51.036;17.058;2022-07-04T05:41:22;13.02;;;3.60;;
68310;SDS011;55157;51.036;17.058;2022-07-04T05:43:48;5.15;;;3.28;;
68310;SDS011;55157;51.036;17.058;2022-07-04T05:46:13;9.90;;;3.53;;
68310;SDS011;55157;51.036;17.058;2022-07-04T05:48:38;11.40;;;3.25;;
68310;SDS011;55157;51.036;17.058;2022-07-04T05:51:03;7.30;;;4.25;;
68310;SDS011;55157;51.036;17.058;2022-07-04T05:53:30;4.80;;;2.95;;
68310;SDS011;55157;51.036;17.058;2022-07-04T05:55:55;7.25;;;2.90;;
68310;SDS011;55157;51.036;17.058;2022-07-04T05:58:21;8.95;;;2.88;;
68310;SDS011;55157;51.036;17.058;2022-07-04T06:00:46;4.32;;;2.88;;
68310;SDS011;55157;51.036;17.058;2022-07-04T06:03:11;8.48;;;2.72;;
68310;SDS011;55157;51.036;17.058;2022-07-04T06:05:36;9.55;;;3.00;;
68310;SDS011;55157;51.036;17.058;2022-07-04T06:08:02;7.28;;;2.45;;
68310;SDS011;55157;51.036;17.058;2022-07-04T06:10:29;8.52;;;3.13;;
68310;SDS011;55157;51.036;17.058;2022-07-04T06:12:54;7.78;;;4.18;;
68310;SDS011;55157;51.036;17.058;2022-07-04T06:15:19;14.10;;;3.35;;
68310;SDS011;55157;51.036;17.058;2022-07-04T06:17:45;7.43;;;3.25;;
68310;SDS011;55157;51.036;17.058;2022-07-04T06:20:10;11.07;;;3.17;;
68310;SDS011;55157;51.036;17.058;2022-07-04T06:22:39;8.88;;;3.28;;
68310;SDS011;55157;51.036;17.058;2022-07-04T06:25:05;12.15;;;3.55;;
68310;SDS011;55157;51.036;17.058;2022-07-04T06:27:32;6.32;;;3.42;;
68310;SDS011;55157;51.036;17.058;2022-07-04T06:29:57;6.45;;;2.40;;
68310;SDS011;55157;51.036;17.058;2022-07-04T06:32:22;10.20;;;2.75;;
68310;SDS011;55157;51.036;17.058;2022-07-04T06:34:47;7.35;;;2.17;;
68310;SDS011;55157;51.036;17.058;2022-07-04T06:37:13;8.60;;;2.60;;
68310;SDS011;55157;51.036;17.058;2022-07-04T06:39:38;6.10;;;2.10;;
68310;SDS011;55157;51.036;17.058;2022-07-04T06:42:03;4.78;;;2.20;;
68310;SDS011;55157;51.036;17.058;2022-07-04T06:44:30;5.75;;;2.00;;
68310;SDS011;55157;51.036;17.058;2022-07-04T06:46:55;11.68;;;2.80;;
68310;SDS011;55157;51.036;17.058;2022-07-04T06:49:21;8.90;;;2.85;;
68310;SDS011;55157;51.036;17.058;2022-07-04T06:51:46;7.25;;;2.22;;
68310;SDS011;55157;51.036;17.058;2022-07-04T06:54:11;5.22;;;1.60;;
68310;SDS011;55157;51.036;17.058;2022-07-04T06:56:36;14.40;;;2.50;;
68310;SDS011;55157;51.036;17.058;2022-07-04T06:59:01;5.45;;;2.00;;
68310;SDS011;55157;51.036;17.058;2022-07-04T07:01:28;6.60;;;2.08;;
68310;SDS011;55157;51.036;17.058;2022-07-04T07:03:53;13.75;;;2.35;;
68310;SDS011;55157;51.036;17.058;2022-07-04T07:06:19;5.90;;;2.22;;
68310;SDS011;55157;51.036;17.058;2022-07-04T07:08:44;7.20;;;2.30;;
68310;SDS011;55157;51.036;17.058;2022-07-04T07:11:09;21.00;;;2.88;;
68310;SDS011;55157;51.036;17.058;2022-07-04T07:13:35;9.27;;;2.10;;
68310;SDS011;55157;51.036;17.058;2022-07-04T07:16:00;12.52;;;2.47;;
68310;SDS011;55157;51.036;17.058;2022-07-04T07:18:27;7.72;;;2.33;;
68310;SDS011;55157;51.036;17.058;2022-07-04T07:20:52;13.82;;;2.08;;
68310;SDS011;55157;51.036;17.058;2022-07-04T07:23:17;6.43;;;2.40;;
68310;SDS011;55157;51.036;17.058;2022-07-04T07:25:43;4.20;;;1.83;;
68310;SDS011;55157;51.036;17.058;2022-07-04T07:28:08;8.93;;;2.28;;
68310;SDS011;55157;51.036;17.058;2022-07-04T07:30:33;5.97;;;2.08;;
68310;SDS011;55157;51.036;17.058;2022-07-04T07:32:58;7.07;;;2.17;;
68310;SDS011;55157;51.036;17.058;2022-07-04T07:35:25;11.57;;;2.92;;
68310;SDS011;55157;51.036;17.058;2022-07-04T07:37:50;6.18;;;2.20;;
68310;SDS011;55157;51.036;17.058;2022-07-04T07:40:16;13.68;;;2.40;;
68310;SDS011;55157;51.036;17.058;2022-07-04T07:42:41;7.45;;;2.53;;
68310;SDS011;55157;51.036;17.058;2022-07-04T07:45:07;11.60;;;2.13;;
68310;SDS011;55157;51.036;17.058;2022-07-04T07:47:32;10.50;;;2.65;;
68310;SDS011;55157;51.036;17.058;2022-07-04T07:49:57;14.03;;;2.20;;
68310;SDS011;55157;51.036;17.058;2022-07-04T07:52:24;14.15;;;2.78;;
68310;SDS011;55157;51.036;17.058;2022-07-04T07:54:49;6.22;;;2.33;;
68310;SDS011;55157;51.036;17.058;2022-07-04T07:57:14;12.55;;;2.63;;
68310;SDS011;55157;51.036;17.058;2022-07-04T07:59:40;4.13;;;2.03;;
68310;SDS011;55157;51.036;17.058;2022-07-04T08:02:05;7.97;;;2.42;;
68310;SDS011;55157;51.036;17.058;2022-07-04T08:04:30;9.48;;;2.80;;
68310;SDS011;55157;51.036;17.058;2022-07-04T08:06:55;14.37;;;2.70;;
68310;SDS011;55157;51.036;17.058;2022-07-04T08:09:22;6.50;;;2.55;;
68310;SDS011;55157;51.036;17.058;2022-07-04T08:11:47;9.15;;;3.25;;
68310;SDS011;55157;51.036;17.058;2022-07-04T08:14:13;13.33;;;2.13;;
68310;SDS011;55157;51.036;17.058;2022-07-04T08:16:38;6.87;;;2.10;;
68310;SDS011;55157;51.036;17.058;2022-07-04T08:19:03;6.95;;;1.98;;
68310;SDS011;55157;51.036;17.058;2022-07-04T08:21:29;11.07;;;3.03;;
68310;SDS011;55157;51.036;17.058;2022-07-04T08:23:54;8.48;;;2.67;;
68310;SDS011;55157;51.036;17.058;2022-07-04T08:26:21;12.00;;;2.20;;
68310;SDS011;55157;51.036;17.058;2022-07-04T08:28:46;12.43;;;2.30;;
68310;SDS011;55157;51.036;17.058;2022-07-04T08:31:12;8.82;;;1.90;;
68310;SDS011;55157;51.036;17.058;2022-07-04T08:33:37;3.72;;;1.75;;
68310;SDS011;55157;51.036;17.058;2022-07-04T08:36:02;5.07;;;1.90;;
68310;SDS011;55157;51.036;17.058;2022-07-04T08:38:28;7.60;;;2.03;;
68310;SDS011;55157;51.036;17.058;2022-07-04T08:40:54;6.47;;;1.77;;
68310;SDS011;55157;51.036;17.058;2022-07-04T08:43:22;12.43;;;2.03;;
68310;SDS011;55157;51.036;17.058;2022-07-04T08:45:48;11.68;;;1.95;;
68310;SDS011;55157;51.036;17.058;2022-07-04T08:48:14;7.07;;;1.90;;
68310;SDS011;55157;51.036;17.058;2022-07-04T08:50:42;8.77;;;2.08;;
68310;SDS011;55157;51.036;17.058;2022-07-04T08:53:09;21.77;;;2.65;;
68310;SDS011;55157;51.036;17.058;2022-07-04T08:55:34;13.55;;;1.98;;
68310;SDS011;55157;51.036;17.058;2022-07-04T08:58:00;13.05;;;2.45;;
68310;SDS011;55157;51.036;17.058;2022-07-04T09:00:27;5.50;;;2.15;;
68310;SDS011;55157;51.036;17.058;2022-07-04T09:02:53;11.20;;;2.55;;
68310;SDS011;55157;51.036;17.058;2022-07-04T09:05:18;23.30;;;2.70;;
68310;SDS011;55157;51.036;17.058;2022-07-04T09:07:43;10.93;;;1.77;;
68310;SDS011;55157;51.036;17.058;2022-07-04T09:10:09;11.13;;;2.40;;
68310;SDS011;55157;51.036;17.058;2022-07-04T09:12:34;14.98;;;2.58;;
68310;SDS011;55157;51.036;17.058;2022-07-04T09:15:00;13.27;;;2.10;;
68310;SDS011;55157;51.036;17.058;2022-07-04T09:17:26;3.47;;;1.92;;
68310;SDS011;55157;51.036;17.058;2022-07-04T09:20:11;7.30;;;1.70;;
68310;SDS011;55157;51.036;17.058;2022-07-04T09:22:37;13.45;;;1.90;;
68310;SDS011;55157;51.036;17.058;2022-07-04T09:25:02;17.23;;;2.28;;
68310;SDS011;55157;51.036;17.058;2022-07-04T09:27:29;35.67;;;3.22;;
68310;SDS011;55157;51.036;17.058;2022-07-04T09:29:54;12.90;;;2.28;;
68310;SDS011;55157;51.036;17.058;2022-07-04T09:32:23;15.53;;;2.10;;
68310;SDS011;55157;51.036;17.058;2022-07-04T09:34:54;13.80;;;2.97;;
68310;SDS011;55157;51.036;17.058;2022-07-04T09:37:20;13.48;;;2.85;;
68310;SDS011;55157;51.036;17.058;2022-07-04T09:39:45;21.58;;;3.72;;
68310;SDS011;55157;51.036;17.058;2022-07-04T09:42:10;7.97;;;1.93;;
68310;SDS011;55157;51.036;17.058;2022-07-04T09:44:42;4.32;;;1.95;;
68310;SDS011;55157;51.036;17.058;2022-07-04T09:47:18;11.90;;;2.20;;
68310;SDS011;55157;51.036;17.058;2022-07-04T09:49:58;15.88;;;2.55;;
68310;SDS011;55157;51.036;17.058;2022-07-04T09:52:23;7.35;;;2.20;;
68310;SDS011;55157;51.036;17.058;2022-07-04T09:54:49;8.15;;;2.63;;
68310;SDS011;55157;51.036;17.058;2022-07-04T09:57:14;8.03;;;2.47;;
68310;SDS011;55157;51.036;17.058;2022-07-04T09:59:46;18.20;;;2.28;;
68310;SDS011;55157;51.036;17.058;2022-07-04T10:02:12;19.88;;;3.95;;
68310;SDS011;55157;51.036;17.058;2022-07-04T10:04:44;21.35;;;3.53;;
68310;SDS011;55157;51.036;17.058;2022-07-04T10:09:36;9.75;;;2.95;;
68310;SDS011;55157;51.036;17.058;2022-07-04T10:12:01;7.68;;;2.75;;
68310;SDS011;55157;51.036;17.058;2022-07-04T10:14:27;9.77;;;2.53;;
68310;SDS011;55157;51.036;17.058;2022-07-04T10:16:52;7.03;;;2.65;;
68310;SDS011;55157;51.036;17.058;2022-07-04T10:19:17;7.63;;;3.05;;
68310;SDS011;55157;51.036;17.058;2022-07-04T10:21:43;8.75;;;2.60;;
68310;SDS011;55157;51.036;17.058;2022-07-04T10:24:09;24.95;;;3.33;;
68310;SDS011;55157;51.036;17.058;2022-07-04T10:26:36;6.97;;;2.28;;
68310;SDS011;55157;51.036;17.058;2022-07-04T10:29:01;9.98;;;3.22;;
68310;SDS011;55157;51.036;17.058;2022-07-04T10:31:27;12.10;;;2.58;;
68310;SDS011;55157;51.036;17.058;2022-07-04T10:33:54;7.90;;;2.72;;
68310;SDS011;55157;51.036;17.058;2022-07-04T10:36:20;7.28;;;2.88;;
68310;SDS011;55157;51.036;17.058;2022-07-04T10:38:46;6.68;;;2.72;;
68310;SDS011;55157;51.036;17.058;2022-07-04T10:41:11;18.20;;;2.83;;
68310;SDS011;55157;51.036;17.058;2022-07-04T10:46:34;9.65;;;3.10;;
68310;SDS011;55157;51.036;17.058;2022-07-04T10:49:00;12.52;;;2.72;;
68310;SDS011;55157;51.036;17.058;2022-07-04T10:54:12;8.80;;;2.88;;
68310;SDS011;55157;51.036;17.058;2022-07-04T10:56:42;8.65;;;2.95;;
68310;SDS011;55157;51.036;17.058;2022-07-04T10:59:18;12.00;;;3.20;;
68310;SDS011;55157;51.036;17.058;2022-07-04T11:01:52;5.88;;;2.63;;
68310;SDS011;55157;51.036;17.058;2022-07-04T11:07:01;22.52;;;2.97;;
68310;SDS011;55157;51.036;17.058;2022-07-04T11:09:26;7.32;;;2.40;;
68310;SDS011;55157;51.036;17.058;2022-07-04T11:11:55;5.90;;;2.38;;
68310;SDS011;55157;51.036;17.058;2022-07-04T11:14:29;8.70;;;2.22;;
68310;SDS011;55157;51.036;17.058;2022-07-04T11:16:56;9.27;;;2.08;;
68310;SDS011;55157;51.036;17.058;2022-07-04T11:19:21;19.30;;;4.15;;
68310;SDS011;55157;51.036;17.058;2022-07-04T11:21:47;5.05;;;2.40;;
68310;SDS011;55157;51.036;17.058;2022-07-04T11:24:12;16.55;;;3.20;;
68310;SDS011;55157;51.036;17.058;2022-07-04T11:26:37;18.30;;;2.95;;
68310;SDS011;55157;51.036;17.058;2022-07-04T11:29:02;12.20;;;2.30;;
68310;SDS011;55157;51.036;17.058;2022-07-04T11:31:34;9.20;;;1.93;;
68310;SDS011;55157;51.036;17.058;2022-07-04T11:34:01;14.65;;;2.42;;
68310;SDS011;55157;51.036;17.058;2022-07-04T11:36:27;9.07;;;2.35;;
68310;SDS011;55157;51.036;17.058;2022-07-04T11:38:53;4.73;;;2.37;;
68310;SDS011;55157;51.036;17.058;2022-07-04T11:41:19;4.60;;;2.40;;
68310;SDS011;55157;51.036;17.058;2022-07-04T11:43:44;8.98;;;2.95;;
68310;SDS011;55157;51.036;17.058;2022-07-04T11:46:10;6.13;;;2.53;;
68310;SDS011;55157;51.036;17.058;2022-07-04T11:48:35;5.50;;;2.88;;
68310;SDS011;55157;51.036;17.058;2022-07-04T11:51:02;8.43;;;2.00;;
68310;SDS011;55157;51.036;17.058;2022-07-04T11:53:27;9.13;;;2.17;;
68310;SDS011;55157;51.036;17.058;2022-07-04T11:55:52;6.50;;;2.25;;
68310;SDS011;55157;51.036;17.058;2022-07-04T11:58:18;3.72;;;2.03;;
68310;SDS011;55157;51.036;17.058;2022-07-04T12:00:43;6.77;;;2.07;;
68310;SDS011;55157;51.036;17.058;2022-07-04T12:03:08;8.13;;;1.97;;
68310;SDS011;55157;51.036;17.058;2022-07-04T12:05:34;6.78;;;2.17;;
68310;SDS011;55157;51.036;17.058;2022-07-04T12:08:01;8.52;;;1.90;;
68310;SDS011;55157;51.036;17.058;2022-07-04T12:10:26;2.60;;;1.98;;
68310;SDS011;55157;51.036;17.058;2022-07-04T12:12:52;5.37;;;1.90;;
68310;SDS011;55157;51.036;17.058;2022-07-04T12:15:18;3.67;;;2.28;;
68310;SDS011;55157;51.036;17.058;2022-07-04T12:17:43;8.02;;;1.95;;
68310;SDS011;55157;51.036;17.058;2022-07-04T12:20:12;10.53;;;2.20;;
68310;SDS011;55157;51.036;17.058;2022-07-04T12:22:38;9.38;;;2.03;;
68310;SDS011;55157;51.036;17.058;2022-07-04T12:25:06;6.50;;;1.98;;
68310;SDS011;55157;51.036;17.058;2022-07-04T12:27:32;10.35;;;2.10;;
68310;SDS011;55157;51.036;17.058;2022-07-04T12:29:57;4.75;;;1.80;;
68310;SDS011;55157;51.036;17.058;2022-07-04T12:32:23;3.70;;;1.90;;
68310;SDS011;55157;51.036;17.058;2022-07-04T12:34:48;5.10;;;2.20;;
68310;SDS011;55157;51.036;17.058;2022-07-04T12:37:14;9.55;;;3.03;;
68310;SDS011;55157;51.036;17.058;2022-07-04T12:39:40;4.20;;;1.90;;
68310;SDS011;55157;51.036;17.058;2022-07-04T12:42:10;10.52;;;2.47;;
68310;SDS011;55157;51.036;17.058;2022-07-04T12:44:36;12.00;;;2.08;;
68310;SDS011;55157;51.036;17.058;2022-07-04T12:47:02;12.23;;;2.20;;
68310;SDS011;55157;51.036;17.058;2022-07-04T12:49:27;11.73;;;2.38;;
68310;SDS011;55157;51.036;17.058;2022-07-04T12:51:52;7.93;;;2.30;;
68310;SDS011;55157;51.036;17.058;2022-07-04T12:54:27;17.42;;;2.45;;
68310;SDS011;55157;51.036;17.058;2022-07-04T12:57:02;8.73;;;2.50;;
68310;SDS011;55157;51.036;17.058;2022-07-04T12:59:29;3.40;;;1.88;;
68310;SDS011;55157;51.036;17.058;2022-07-04T13:01:54;3.38;;;2.00;;
68310;SDS011;55157;51.036;17.058;2022-07-04T13:04:19;16.27;;;2.47;;
68310;SDS011;55157;51.036;17.058;2022-07-04T13:06:45;3.60;;;1.87;;
68310;SDS011;55157;51.036;17.058;2022-07-04T13:09:10;17.05;;;2.10;;
68310;SDS011;55157;51.036;17.058;2022-07-04T13:11:36;10.63;;;1.90;;
68310;SDS011;55157;51.036;17.058;2022-07-04T13:14:01;7.82;;;1.75;;
68310;SDS011;55157;51.036;17.058;2022-07-04T13:16:28;4.35;;;2.00;;
68310;SDS011;55157;51.036;17.058;2022-07-04T13:18:53;7.05;;;1.95;;
68310;SDS011;55157;51.036;17.058;2022-07-04T13:21:18;14.32;;;2.05;;
68310;SDS011;55157;51.036;17.058;2022-07-04T13:23:44;10.85;;;2.15;;
68310;SDS011;55157;51.036;17.058;2022-07-04T13:26:09;10.02;;;1.80;;
68310;SDS011;55157;51.036;17.058;2022-07-04T13:28:34;7.97;;;1.90;;
68310;SDS011;55157;51.036;17.058;2022-07-04T13:31:00;5.18;;;1.85;;
68310;SDS011;55157;51.036;17.058;2022-07-04T13:33:26;8.67;;;1.63;;
68310;SDS011;55157;51.036;17.058;2022-07-04T13:35:52;12.48;;;2.30;;
68310;SDS011;55157;51.036;17.058;2022-07-04T13:38:17;4.73;;;1.73;;
68310;SDS011;55157;51.036;17.058;2022-07-04T13:40:42;6.07;;;2.40;;
68310;SDS011;55157;51.036;17.058;2022-07-04T13:43:08;11.60;;;1.90;;
68310;SDS011;55157;51.036;17.058;2022-07-04T13:45:33;13.68;;;1.83;;
68310;SDS011;55157;51.036;17.058;2022-07-04T13:47:58;10.07;;;2.20;;
68310;SDS011;55157;51.036;17.058;2022-07-04T13:50:25;3.83;;;1.90;;
68310;SDS011;55157;51.036;17.058;2022-07-04T13:52:50;9.82;;;2.55;;
68310;SDS011;55157;51.036;17.058;2022-07-04T13:55:15;7.00;;;2.25;;
68310;SDS011;55157;51.036;17.058;2022-07-04T13:57:41;7.45;;;1.85;;
68310;SDS011;55157;51.036;17.058;2022-07-04T14:00:06;11.45;;;2.28;;
68310;SDS011;55157;51.036;17.058;2022-07-04T14:02:32;2.25;;;1.30;;
68310;SDS011;55157;51.036;17.058;2022-07-04T14:04:57;11.02;;;3.80;;
68310;SDS011;55157;51.036;17.058;2022-07-04T14:07:24;6.05;;;1.95;;
68310;SDS011;55157;51.036;17.058;2022-07-04T14:09:49;11.05;;;1.95;;
68310;SDS011;55157;51.036;17.058;2022-07-04T14:12:14;6.80;;;1.83;;
68310;SDS011;55157;51.036;17.058;2022-07-04T14:14:40;13.50;;;2.07;;
68310;SDS011;55157;51.036;17.058;2022-07-04T14:17:05;5.28;;;1.60;;
68310;SDS011;55157;51.036;17.058;2022-07-04T14:19:30;15.77;;;2.08;;
68310;SDS011;55157;51.036;17.058;2022-07-04T14:21:56;8.80;;;2.08;;
68310;SDS011;55157;51.036;17.058;2022-07-04T14:24:22;4.80;;;1.77;;
68310;SDS011;55157;51.036;17.058;2022-07-04T14:26:48;10.68;;;1.67;;
68310;SDS011;55157;51.036;17.058;2022-07-04T14:29:13;17.65;;;1.83;;
68310;SDS011;55157;51.036;17.058;2022-07-04T14:31:38;7.30;;;1.80;;